Tiempo atmosférico en la estación meteorológica de Najera, La Rioja (500 m.)



Fecha
DESCASC
Temp. máxima en grados centígrados (hora)
DESCASC
Temp. mínima en grados centígrados (hora)
DESCASC
Temp. media en grados centígrados
DESCASC
Racha de viento máxima en m/sg (hora)
DESCASC
Velocidad máxima media en intervalos de 10 minutos(hora)
DESCASC
Precipitaciones diarias en mm
DESCASC
Precipitaciones de 00:00 a 06:00 en mm
DESCASC
Precipitaciones de 06:00 a 12:00 en mm
DESCASC
Precipitaciones de 12:00 a 18:00 en mm
DESCASC
Precipitaciones de 18:00 a 24:00 en mm
DESCASC
24-05-2020 24.6 (18:20) 9.2 (02:50) 16.9 6.39 (20:10) 3.33 (20:10) 0 0 0 0 0
23-05-2020 18.4 (15:00) 11.9 (23:59) 15.1 7.78 (12:10) 3.61 (01:10) 0 0 0 0 0
22-05-2020 31.7 (18:10) 13.8 (07:00) 22.8 8.61 (22:20) 4.72 (22:30) 0 0 0 0 0
21-05-2020 30.7 (18:50) 10 (00:00) 20.4 4.72 (23:20) 2.5 (04:10) 0 0 0 0 0
20-05-2020 29.3 (17:10) 9.8 (00:00) 19.5 7.22 (16:20) 2.5 (18:20) 0 0 0 0 0
19-05-2020 26 (18:40) 8.6 (00:00) 17.3 6.11 (17:20) 2.78 (17:40) 0 0 0 0 0
18-05-2020 24.1 (16:40) 7.3 (00:00) 15.7 7.22 (16:00) 2.78 (17:10) 0 0 0 0 0
17-05-2020 21 (17:50) 5.6 (00:00) 13.3 6.11 (14:40) 2.5 (16:20) 0 0 0 0 0
16-05-2020 14.7 (20:20) 8.8 (00:00) 11.8 7.5 (18:50) 2.78 (19:10) 2.2 0 2.2 0 0
15-05-2020 13.1 (14:50) 9.7 (00:00) 11.4 6.67 (18:50) 2.78 (12:10) 0.6 0 0 0.2 0.4
14-05-2020 15 (15:50) 11.5 (00:00) 13.3 6.39 (17:40) 2.78 (20:20) 0.2 0 0 0.2 0
13-05-2020 18.9 (19:40) 10.4 (00:00) 14.6 4.17 (04:10) 1.94 (04:20) 4 2.4 1.6 0 0
12-05-2020 17.8 (15:00) 11.3 (00:00) 14.5 4.44 (00:40) 2.5 (00:40) 13.4 0 0 0.2 13.2
11-05-2020 22.2 (16:20) 11.7 (00:00) 17 10.56 (13:30) 5.28 (13:30) 0 0 0 0 0
10-05-2020 17.8 (13:20) 12.2 (00:00) 15 11.11 (12:40) 4.72 (14:30) 10 1.2 2.2 1.6 5
09-05-2020 25.9 (18:00) 12.5 (00:00) 19.2 9.72 (16:10) 5.83 (15:20) 0.6 0.6 0 0 0
08-05-2020 26.1 (16:00) 14.2 (00:00) 20.2 10.83 (04:50) 6.11 (05:20) 11.8 0 0 0 11.8
07-05-2020 26.3 (16:50) 11.2 (00:00) 18.7 11.39 (13:30) 6.67 (13:40) 0 0 0 0 0
06-05-2020 27.2 (17:30) 10.8 (00:00) 19 5.28 (07:10) 2.5 (07:10) 0 0 0 0 0
05-05-2020 25.4 (17:50) 11.7 (00:00) 18.5 7.78 (19:00) 3.33 (20:10) 0 0 0 0 0
04-05-2020 31.8 (18:40) 11.1 (00:00) 21.4 14.72 (17:40) 6.67 (12:40) 0.2 0 0 0 0.2
03-05-2020 26.8 (17:40) 9.3 (00:00) 18 8.33 (17:50) 4.72 (16:30) 0 0 0 0 0
02-05-2020 23.9 (16:20) 11.7 (00:00) 17.8 12.5 (16:20) 5.83 (17:20) 0 0 0 0 0
01-05-2020 25 (17:10) 14 (00:00) 19.5 15 (14:40) 6.67 (14:20) 0.2 0 0.2 0 0
30-04-2020 20.2 (19:40) 12.1 (00:00) 16.2 14.72 (11:40) 7.22 (11:40) 0 0 0 0 0
29-04-2020 21 (16:10) 6.8 (00:00) 13.9 11.67 (20:20) 5.83 (20:20) 0 0 0 0 0
28-04-2020 18.7 (16:50) 6.9 (00:00) 12.8 12.5 (14:20) 6.11 (13:50) 0 0 0 0 0
27-04-2020 18.4 (18:20) 10.5 (00:00) 14.4 10 (17:20) 4.72 (15:40) 1.2 0 0 1 0.2

Gráficas

Temp. máximas Temp. mínimas Temp. medias Precipitaciones Rachas de viento máximas Velocidades máximas media en intervalos de 10 minutos

Datos horarios

Fecha y hora oficial Temperatura (ºC) Velocidad del viento (km/h) Dirección del viento Racha (km/h) Dirección de racha Precipitación (mm) Presión (hPa) Tendencia (hPa) Humedad (%)
2020-05-26 23:00:00 18.7 6 Sudoeste 18 Oeste 0 -- -- 67
2020-05-26 22:00:00 20.3 10 Oeste 18 Oeste 0 -- -- 59
2020-05-26 21:00:00 23.6 5 Noroeste 15 Oeste 0 -- -- 56
2020-05-26 20:00:00 25.6 6 Norte 18 Norte 0 -- -- 53
2020-05-26 19:00:00 26.5 10 Norte 20 Norte 0 -- -- 50
2020-05-26 18:00:00 27.4 8 Nordeste 14 Este 0 -- -- 44
2020-05-26 17:00:00 26.9 9 Nordeste 17 Nordeste 0 -- -- 46
2020-05-26 16:00:00 25.8 5 Norte 19 Nordeste 0 -- -- 47
2020-05-26 15:00:00 25.2 6 Norte 19 Norte 0 -- -- 48
2020-05-26 14:00:00 24.2 9 Nordeste 16 Este 0 -- -- 50
2020-05-26 13:00:00 22.6 8 Nordeste 14 Nordeste 0 -- -- 50
2020-05-26 12:00:00 20.9 5 Oeste 13 Oeste 0 -- -- 55
2020-05-26 11:00:00 18.9 5 Oeste 17 Oeste 0 -- -- 60
2020-05-26 10:00:00 16.9 5 Oeste 12 Oeste 0 -- -- 65
2020-05-26 09:00:00 14.7 5 Sur 8 Sudoeste 0 -- -- 79
2020-05-26 08:00:00 13.5 3 Sudoeste 9 Sur 0 -- -- 81
2020-05-26 07:00:00 12.9 5 Sur 10 Sudoeste 0 -- -- 81
2020-05-26 06:00:00 13 4 Sur 6 Sur 0 -- -- 80
2020-05-26 05:00:00 13.5 3 Sur 11 Sudoeste 0 -- -- 74
2020-05-26 04:00:00 13.8 4 Sur 15 Sudoeste 0 -- -- 73
2020-05-26 03:00:00 14.4 9 Oeste 18 Oeste 0 -- -- 68
2020-05-26 02:00:00 15.2 5 Oeste 18 Oeste 0 -- -- 69
2020-05-26 01:00:00 16 9 Oeste 21 Sudoeste 0 -- -- 68
2020-05-26 00:00:00 16.2 7 Sudoeste 20 Sudoeste 0 -- -- 70
2020-05-25 23:00:00 16.4 7 Sudoeste 18 Sudoeste 0 -- -- 72
2020-05-25 22:00:00 16.4 6 Sudoeste 15 Oeste 0 -- -- 74
2020-05-25 21:00:00 17 7 Oeste 17 Oeste 0.2 -- -- 77
2020-05-25 20:00:00 19.3 5 Noroeste 17 Noroeste 0 -- -- 64
2020-05-25 19:00:00 21.2 8 Nordeste 17 Nordeste 0 -- -- 65
2020-05-25 18:00:00 21.5 7 Norte 17 Nordeste 0 -- -- 64
2020-05-25 17:00:00 22.8 10 Nordeste 19 Nordeste 0 -- -- 60
2020-05-25 16:00:00 23.2 9 Nordeste 24 Nordeste 0 -- -- 59
2020-05-25 15:00:00 23.9 10 Nordeste 21 Nordeste 0 -- -- 55
2020-05-25 14:00:00 23 6 Noroeste 14 Noroeste 0 -- -- 55
2020-05-25 13:00:00 21.7 5 Sudoeste 12 Nordeste 0 -- -- 59
2020-05-25 12:00:00 20.2 3 Oeste 12 Noroeste 0 -- -- 60
2020-05-25 11:00:00 18.6 6 Oeste 21 Oeste 0 -- -- 63
2020-05-25 10:00:00 16.8 6 Noroeste 14 Noroeste 0 -- -- 66
2020-05-25 09:00:00 15.3 7 Oeste 17 Oeste 0 -- -- 70
2020-05-25 08:00:00 14.2 5 Sudoeste 14 Oeste 0 -- -- 77
2020-05-25 07:00:00 13.4 5 Oeste 12 Oeste 0 -- -- 80
2020-05-25 06:00:00 13.2 4 Sudoeste 11 Oeste 0 -- -- 82
2020-05-25 05:00:00 12.9 6 Oeste 14 Oeste 0 -- -- 85
2020-05-25 04:00:00 13.2 4 Oeste 16 Sudoeste 0 -- -- 85
2020-05-25 03:00:00 13.5 4 Sudoeste 14 Sudoeste 0 -- -- 84
2020-05-25 02:00:00 13.8 6 Oeste 13 Sudoeste 0 -- -- 83
2020-05-25 01:00:00 14 5 Sudoeste 19 Oeste 0 -- -- 82
2020-05-25 00:00:00 14.4 11 Oeste 21 Sudoeste 0 -- -- 81
2020-05-24 23:00:00 15.5 4 Sur 16 Sudoeste 0 -- -- 77
2020-05-24 22:00:00 17 6 Sur 17 Sudoeste 0 -- -- 72
2020-05-24 21:00:00 19.3 7 Oeste 23 Noroeste 0 -- -- 64
2020-05-24 20:00:00 21.8 10 Noroeste 21 Oeste 0 -- -- 57
2020-05-24 19:00:00 23.9 7 Noroeste 18 Oeste 0 -- -- 51
2020-05-24 18:00:00 24.3 5 Oeste 13 Noroeste 0 -- -- 45
2020-05-24 17:00:00 23.6 5 Oeste 10 Nordeste 0 -- -- 44
2020-05-24 16:00:00 22.9 4 Sur 9 Oeste 0 -- -- 41
2020-05-24 15:00:00 20.9 5 Nordeste 12 Norte 0 -- -- 46
2020-05-24 14:00:00 19.6 4 Oeste 12 Oeste 0 -- -- 52
2020-05-24 13:00:00 18 6 Oeste 14 Oeste 0 -- -- 57
2020-05-24 12:00:00 16.5 5 Sudoeste 18 Oeste 0 -- -- 61
2020-05-24 11:00:00 14.7 8 Oeste 17 Oeste 0 -- -- 67
2020-05-24 10:00:00 13.4 7 Noroeste 14 Oeste 0 -- -- 71
2020-05-24 09:00:00 11.8 4 Sudoeste 14 Sudoeste 0 -- -- 78
2020-05-24 08:00:00 10.2 7 Sudoeste 18 Oeste 0 -- -- 83
2020-05-24 07:00:00 9.7 6 Oeste 13 Oeste 0 -- -- 83
2020-05-24 06:00:00 9.7 6 Oeste 12 Oeste 0 -- -- 82
2020-05-24 05:00:00 9.8 5 Oeste 18 Sudoeste 0 -- -- 81
2020-05-24 04:00:00 9.5 6 Oeste 14 Oeste 0 -- -- 82
2020-05-24 03:00:00 9.2 4 Sudoeste 14 Sur 0 -- -- 83
2020-05-24 02:00:00 9.5 6 Sudoeste 15 Oeste 0 -- -- 82
2020-05-24 01:00:00 10.6 8 Oeste 20 Oeste 0 -- -- 78
2020-05-24 00:00:00 11.9 6 Oeste 17 Oeste 0 -- -- 75
2020-05-23 23:00:00 12.9 10 Oeste 18 Oeste 0 -- -- 76
2020-05-23 22:00:00 13.5 9 Oeste 15 Oeste 0 -- -- 77
2020-05-23 21:00:00 14.4 6 Noroeste 19 Noroeste 0 -- -- 74
2020-05-23 20:00:00 15.4 8 Noroeste 22 Noroeste 0 -- -- 70
2020-05-23 19:00:00 16.1 9 Noroeste 18 Oeste 0 -- -- 69
2020-05-23 18:00:00 16.1 6 Noroeste 17 Oeste 0 -- -- 70
2020-05-23 17:00:00 16.3 6 Noroeste 22 Oeste 0 -- -- 70
2020-05-23 16:00:00 18.1 5 Noroeste 15 Oeste 0 -- -- 68
2020-05-23 15:00:00 18.4 4 Oeste 15 Oeste 0 -- -- 67
2020-05-23 14:00:00 16.9 8 Noroeste 19 Oeste 0 -- -- 73
2020-05-23 13:00:00 16.3 6 Noroeste 28 Noroeste 0 -- -- 74
2020-05-23 12:00:00 15.8 10 Noroeste 19 Noroeste 0 -- -- 80
2020-05-23 11:00:00 16.4 11 Noroeste 20 Oeste 0 -- -- 79
2020-05-23 10:00:00 16.4 6 Oeste 15 Oeste 0 -- -- 80
2020-05-23 09:00:00 16 8 Oeste 19 Sudoeste 0 -- -- 81
2020-05-23 08:00:00 15.7 4 Sudoeste 14 Oeste 0 -- -- 83
2020-05-23 07:00:00 15.6 7 Oeste 15 Oeste 0 -- -- 82
2020-05-23 06:00:00 15.6 9 Oeste 21 Oeste 0 -- -- 82
2020-05-23 05:00:00 15.7 10 Oeste 22 Oeste 0 -- -- 82
2020-05-23 04:00:00 15.9 11 Oeste 20 Oeste 0 -- -- 83
2020-05-23 03:00:00 16.2 8 Oeste 21 Oeste 0 -- -- 84
2020-05-23 02:00:00 16.5 10 Oeste 26 Oeste 0 -- -- 84
2020-05-23 01:00:00 16.3 12 Oeste 23 Oeste 0 -- -- 86
2020-05-23 00:00:00 17.2 8 Sudoeste 26 Noroeste 0 -- -- 83
2020-05-22 23:00:00 18 13 Oeste 31 Oeste 0 -- -- 80
2020-05-22 22:00:00 21.5 11 Oeste 27 Sudoeste 0 -- -- 70
2020-05-22 21:00:00 28.8 4 Noroeste 13 Nordeste 0 -- -- 50
2020-05-22 20:00:00 30.6 8 Nordeste 18 Nordeste 0 -- -- 41
2020-05-22 19:00:00 31.3 8 Nordeste 17 Este 0 -- -- 40
2020-05-22 18:00:00 31.6 5 Este 17 Nordeste 0 -- -- 39
2020-05-22 17:00:00 31.1 4 Nordeste 16 Nordeste 0 -- -- 39
2020-05-22 16:00:00 29.9 5 Noroeste 17 Oeste 0 -- -- 40
2020-05-22 15:00:00 29 6 Noroeste 13 Noroeste 0 -- -- 42
2020-05-22 14:00:00 27.6 7 Oeste 15 Norte 0 -- -- 47
2020-05-22 13:00:00 26.3 4 Sudoeste 12 Norte 0 -- -- 49
2020-05-22 12:00:00 24.4 5 Oeste 12 Noroeste 0 -- -- 53
2020-05-22 11:00:00 22.4 6 Oeste 15 Oeste 0 -- -- 59
2020-05-22 10:00:00 20.9 6 Oeste 14 Oeste 0 -- -- 61
2020-05-22 09:00:00 18.5 0 Calma 8 Sur 0 -- -- 65
2020-05-22 08:00:00 15.7 2 Sudeste 7 Sudeste 0 -- -- 71
2020-05-22 07:00:00 13.8 3 Sur 12 Sur 0 -- -- 75
2020-05-22 06:00:00 14.1 3 Sudeste 9 Sur 0 -- -- 74
2020-05-22 05:00:00 14.2 3 Sudoeste 7 Sudoeste 0 -- -- 76
2020-05-22 04:00:00 15.1 0 Calma 6 Sur 0 -- -- 74
2020-05-22 03:00:00 15.9 4 Sur 9 Sudoeste 0 -- -- 70
2020-05-22 02:00:00 17.6 7 Sudoeste 12 Sudeste 0 -- -- 63
2020-05-22 01:00:00 18.1 6 Sur 14 Sur 0 -- -- 63
2020-05-22 00:00:00 19.8 5 Sur 17 Sur 0 -- -- 58
2020-05-21 23:00:00 20.8 6 Sur 14 Sudoeste 0 -- -- 56
2020-05-21 22:00:00 23.2 4 Sur 13 Sudoeste 0 -- -- 53
2020-05-21 21:00:00 27.6 2 Oeste 4 Oeste 0 -- -- 41
2020-05-21 20:00:00 30.2 3 Sudoeste 7 Sudoeste 0 -- -- 28
2020-05-21 19:00:00 30.6 4 Sudoeste 13 Oeste 0 -- -- 26
2020-05-21 18:00:00 30.4 4 Sudoeste 12 Norte 0 -- -- 24
2020-05-21 17:00:00 29.7 5 Norte 12 Norte 0 -- -- 32
2020-05-21 16:00:00 28.8 4 Nordeste 11 Nordeste 0 -- -- 34
2020-05-21 15:00:00 27.6 4 Norte 10 Norte 0 -- -- 36
2020-05-21 14:00:00 26.2 3 Norte 12 Norte 0 -- -- 43
2020-05-21 13:00:00 24.2 3 Norte 8 Norte 0 -- -- 47
2020-05-21 12:00:00 21.9 4 Noroeste 10 Oeste 0 -- -- 51
2020-05-21 11:00:00 19.5 4 Oeste 9 Oeste 0 -- -- 54
2020-05-21 10:00:00 18 3 Norte 8 Noroeste 0 -- -- 58
2020-05-21 09:00:00 15.2 6 Sur 10 Sur 0 -- -- 61
2020-05-21 08:00:00 11.5 5 Sur 14 Sur 0 -- -- 73
2020-05-21 07:00:00 10 8 Sur 14 Sur 0 -- -- 79
2020-05-21 06:00:00 10.2 6 Sur 10 Sur 0 -- -- 79
2020-05-21 05:00:00 11 5 Sur 12 Sur 0 -- -- 75
2020-05-21 04:00:00 11.8 8 Sur 15 Sur 0 -- -- 71
2020-05-21 03:00:00 12.4 7 Sur 10 Sur 0 -- -- 72
2020-05-21 02:00:00 13.3 6 Sur 10 Sur 0 -- -- 68
2020-05-21 01:00:00 14.6 6 Sur 13 Sur 0 -- -- 67
2020-05-21 00:00:00 16.1 6 Sur 12 Sur 0 -- -- 64
2020-05-20 23:00:00 17.4 8 Sur 12 Sur 0 -- -- 62
2020-05-20 22:00:00 21.3 4 Sur 13 Oeste 0 -- -- 52
2020-05-20 21:00:00 25.5 3 Noroeste 10 Norte 0 -- -- 38
2020-05-20 20:00:00 27.3 7 Norte 15 Norte 0 -- -- 36
2020-05-20 19:00:00 28.5 7 Norte 18 Norte 0 -- -- 31
2020-05-20 18:00:00 29.1 6 Noroeste 21 Noroeste 0 -- -- 27
2020-05-20 17:00:00 29.1 5 Noroeste 26 Sudoeste 0 -- -- 33
2020-05-20 16:00:00 28.3 7 Sudoeste 16 Noroeste 0 -- -- 33
2020-05-20 15:00:00 27.2 5 Noroeste 15 Sudoeste 0 -- -- 34
2020-05-20 14:00:00 25.9 6 Oeste 15 Oeste 0 -- -- 35
2020-05-20 13:00:00 24.3 7 Noroeste 15 Oeste 0 -- -- 42
2020-05-20 12:00:00 22.3 5 Oeste 14 Oeste 0 -- -- 50
2020-05-20 11:00:00 20.4 6 Oeste 14 Oeste 0 -- -- 55
2020-05-20 10:00:00 18.1 4 Sudoeste 9 Sur 0 -- -- 60
2020-05-20 09:00:00 14.9 4 Sur 12 Sur 0 -- -- 68
2020-05-20 08:00:00 11.4 7 Sur 15 Sur 0 -- -- 79
2020-05-20 07:00:00 10.1 4 Sur 12 Sur 0 -- -- 83
2020-05-20 06:00:00 9.9 5 Sur 10 Sur 0 -- -- 86
2020-05-20 05:00:00 9.8 6 Sur 12 Sur 0 -- -- 87
2020-05-20 04:00:00 10.5 5 Sur 8 Sur 0 -- -- 85
2020-05-20 03:00:00 11.1 6 Sur 10 Sur 0 -- -- 84
2020-05-20 02:00:00 12 6 Sudeste 11 Sudeste 0 -- -- 81
2020-05-20 01:00:00 13 5 Sur 11 Sur 0 -- -- 79
2020-05-20 00:00:00 14.6 4 Sur 14 Oeste 0 -- -- 74
2020-05-19 23:00:00 16.3 5 Sur 15 Sudoeste 0 -- -- 69
2020-05-19 22:00:00 19.3 4 Sudoeste 13 Oeste 0 -- -- 53
2020-05-19 21:00:00 22.4 6 Noroeste 13 Oeste 0 -- -- 48
2020-05-19 20:00:00 24.3 8 Norte 19 Noroeste 0 -- -- 44
2020-05-19 19:00:00 25.9 5 Noroeste 21 Noroeste 0 -- -- 42
2020-05-19 18:00:00 25.7 5 Norte 22 Noroeste 0 -- -- 41
2020-05-19 17:00:00 25.7 6 Oeste 21 Sudoeste 0 -- -- 43
2020-05-19 16:00:00 25 7 Noroeste 18 Oeste 0 -- -- 44
2020-05-19 15:00:00 23.5 5 Noroeste 17 Sudoeste 0 -- -- 45
2020-05-19 14:00:00 22.3 6 Oeste 18 Noroeste 0 -- -- 46
2020-05-19 13:00:00 20.7 5 Oeste 14 Noroeste 0 -- -- 54
2020-05-19 12:00:00 19.2 4 Oeste 14 Oeste 0 -- -- 56
2020-05-19 11:00:00 17.3 5 Oeste 14 Noroeste 0 -- -- 57
2020-05-19 10:00:00 16.1 5 Sudoeste 13 Noroeste 0 -- -- 60
2020-05-19 09:00:00 12.2 6 Sur 13 Sur 0 -- -- 77
2020-05-19 08:00:00 10 6 Sur 13 Sur 0 -- -- 84
2020-05-19 07:00:00 8.6 5 Sur 12 Sur 0 -- -- 86
2020-05-19 06:00:00 8.9 6 Sur 12 Sudoeste 0 -- -- 87
2020-05-19 05:00:00 9.2 8 Sur 13 Sur 0 -- -- 87
2020-05-19 04:00:00 9.9 6 Sur 12 Sudoeste 0 -- -- 85
2020-05-19 03:00:00 10.1 5 Sur 13 Sur 0 -- -- 86
2020-05-19 02:00:00 10.7 7 Sur 14 Sur 0 -- -- 84
2020-05-19 01:00:00 12.8 5 Sudoeste 12 Oeste 0 -- -- 76
2020-05-19 00:00:00 13.5 4 Sudoeste 10 Sur 0 -- -- 74
2020-05-18 23:00:00 15.5 2 Noroeste 9 Oeste 0 -- -- 62
2020-05-18 22:00:00 17.2 4 Oeste 13 Noroeste 0 -- -- 54
2020-05-18 21:00:00 19.9 4 Norte 17 Norte 0 -- -- 47
2020-05-18 20:00:00 22.5 5 Norte 20 Norte 0 -- -- 40
2020-05-18 19:00:00 23.5 6 Norte 22 Oeste 0 -- -- 41
2020-05-18 18:00:00 24 7 Norte 23 Norte 0 -- -- 39
2020-05-18 17:00:00 24 8 Norte 20 Noroeste 0 -- -- 42
2020-05-18 16:00:00 23.6 7 Noroeste 26 Oeste 0 -- -- 41
2020-05-18 15:00:00 22.6 5 Noroeste 21 Oeste 0 -- -- 42
2020-05-18 14:00:00 21.3 5 Noroeste 17 Noroeste 0 -- -- 48
2020-05-18 13:00:00 19.7 7 Oeste 18 Sudoeste 0 -- -- 51
2020-05-18 12:00:00 17.9 7 Oeste 14 Oeste 0 -- -- 56
2020-05-18 11:00:00 16.4 6 Noroeste 16 Noroeste 0 -- -- 58
2020-05-18 10:00:00 14.8 7 Noroeste 14 Oeste 0 -- -- 59
2020-05-18 09:00:00 11.8 5 Sur 14 Sudoeste 0 -- -- 71
2020-05-18 08:00:00 9 5 Sur 14 Sudoeste 0 -- -- 78
2020-05-18 07:00:00 7.3 5 Sur 13 Sudoeste 0 -- -- 85
2020-05-18 06:00:00 7.4 6 Sur 14 Sur 0 -- -- 84
2020-05-18 05:00:00 7.8 4 Sur 15 Sudoeste 0 -- -- 85
2020-05-18 04:00:00 8 5 Sur 12 Sur 0 -- -- 86
2020-05-18 03:00:00 8.2 6 Sur 12 Sur 0 -- -- 85
2020-05-18 02:00:00 9.2 5 Sur 10 Sudoeste 0 -- -- 85
2020-05-18 01:00:00 10.2 6 Sur 19 Oeste 0 -- -- 82
2020-05-18 00:00:00 11.9 7 Sudoeste 19 Oeste 0 -- -- 74
2020-05-17 23:00:00 13.3 7 Sudoeste 15 Sudoeste 0 -- -- 67
2020-05-17 22:00:00 14.7 7 Oeste 17 Oeste 0 -- -- 57
2020-05-17 21:00:00 17.7 4 Noroeste 16 Oeste 0 -- -- 49
2020-05-17 20:00:00 19.9 5 Norte 18 Noroeste 0 -- -- 48
2020-05-17 19:00:00 20.7 9 Noroeste 17 Noroeste 0 -- -- 46
2020-05-17 18:00:00 20.8 5 Norte 17 Oeste 0 -- -- 48
2020-05-17 17:00:00 20.2 7 Oeste 21 Sudoeste 0 -- -- 49
2020-05-17 16:00:00 19.5 6 Oeste 19 Sudoeste 0 -- -- 50
2020-05-17 15:00:00 18.6 6 Oeste 22 Oeste 0 -- -- 53
2020-05-17 14:00:00 17.9 7 Oeste 16 Oeste 0 -- -- 54
2020-05-17 13:00:00 16.7 4 Norte 18 Noroeste 0 -- -- 58
2020-05-17 12:00:00 14.8 6 Noroeste 15 Oeste 0 -- -- 61
2020-05-17 11:00:00 13.3 4 Noroeste 18 Oeste 0 -- -- 62
2020-05-17 10:00:00 12 4 Noroeste 14 Oeste 0 -- -- 70
2020-05-17 09:00:00 9.8 5 Sur 11 Sur 0 -- -- 82
2020-05-17 08:00:00 6.8 6 Sur 10 Sur 0 -- -- 91
2020-05-17 07:00:00 5.6 4 Sur 11 Sur 0 -- -- 92
2020-05-17 06:00:00 5.7 6 Sur 12 Sur 0 -- -- 92
2020-05-17 05:00:00 6.3 5 Sur 10 Sur 0 -- -- 91
2020-05-17 04:00:00 7.2 7 Sur 11 Sudoeste 0 -- -- 89
2020-05-17 03:00:00 8.8 5 Sur 15 Oeste 0 -- -- 84
2020-05-17 02:00:00 9.9 4 Oeste 16 Noroeste 0 -- -- 81
2020-05-17 01:00:00 10.2 5 Sudoeste 18 Oeste 0 -- -- 83
2020-05-17 00:00:00 10.4 7 Oeste 16 Oeste 0 -- -- 82
2020-05-16 23:00:00 11.7 6 Oeste 17 Noroeste 0 -- -- 77
2020-05-16 22:00:00 12.3 6 Noroeste 21 Noroeste 0 -- -- 73
2020-05-16 21:00:00 13.9 5 Norte 17 Norte 0 -- -- 69
2020-05-16 20:00:00 14.1 4 Noroeste 22 Oeste 0 -- -- 67
2020-05-16 19:00:00 14.2 9 Noroeste 27 Noroeste 0 -- -- 70
2020-05-16 18:00:00 14.2 7 Noroeste 15 Oeste 0 -- -- 70
2020-05-16 17:00:00 13.8 7 Noroeste 16 Oeste 0 -- -- 73
2020-05-16 16:00:00 13.3 3 Noroeste 14 Sudoeste 0 -- -- 78
2020-05-16 15:00:00 13.1 8 Sudoeste 15 Sudoeste 0 -- -- 83
2020-05-16 14:00:00 11.2 6 Sudoeste 11 Sur 0 -- -- 89
2020-05-16 13:00:00 10.7 6 Sur 12 Sur 0 -- -- 91
2020-05-16 12:00:00 10.3 4 Sur 8 Sur 0 -- -- 94
2020-05-16 11:00:00 9.5 4 Sur 9 Sudoeste 0 -- -- 96
2020-05-16 10:00:00 9.1 5 Sur 10 Sur 0 -- -- 96
2020-05-16 09:00:00 8.9 5 Sur 9 Sudoeste 1 -- -- 96
2020-05-16 08:00:00 8.8 5 Sudoeste 10 Sur 1 -- -- 95
2020-05-16 07:00:00 9 4 Sudoeste 11 Sudoeste 0.2 -- -- 92
2020-05-16 06:00:00 9.2 6 Sudoeste 11 Sudoeste 0 -- -- 89
2020-05-16 05:00:00 9.4 6 Sudoeste 14 Sudoeste 0 -- -- 85
2020-05-16 04:00:00 9.5 5 Sudoeste 12 Sudoeste 0 -- -- 84
2020-05-16 03:00:00 9.5 6 Oeste 13 Sudoeste 0 -- -- 85
2020-05-16 02:00:00 9.4 4 Sudoeste 13 Oeste 0 -- -- 86
2020-05-16 01:00:00 9.4 6 Oeste 15 Sudoeste 0 -- -- 87
2020-05-16 00:00:00 9.7 5 Oeste 14 Oeste 0 -- -- 85
2020-05-15 23:00:00 10 6 Oeste 14 Oeste 0 -- -- 84
2020-05-15 22:00:00 10.4 5 Noroeste 13 Oeste 0 -- -- 82
2020-05-15 21:00:00 10.5 5 Noroeste 20 Noroeste 0.2 -- -- 83
2020-05-15 20:00:00 10.8 5 Noroeste 19 Oeste 0 -- -- 84
2020-05-15 19:00:00 10.9 9 Noroeste 24 Noroeste 0.2 -- -- 88
2020-05-15 18:00:00 11.4 9 Noroeste 21 Oeste 0.2 -- -- 87
2020-05-15 17:00:00 12.3 8 Noroeste 22 Norte 0 -- -- 81
2020-05-15 16:00:00 13.1 6 Noroeste 22 Noroeste 0 -- -- 74
2020-05-15 15:00:00 13 7 Noroeste 23 Noroeste 0 -- -- 75
2020-05-15 14:00:00 12.7 7 Noroeste 19 Noroeste 0 -- -- 76
2020-05-15 13:00:00 12.4 5 Norte 21 Oeste 0 -- -- 78
2020-05-15 12:00:00 12 6 Noroeste 13 Oeste 0 -- -- 85
2020-05-15 11:00:00 11.3 4 Sudoeste 12 Oeste 0 -- -- 88
2020-05-15 10:00:00 11.1 8 Oeste 14 Oeste 0 -- -- 86
2020-05-15 09:00:00 10.9 4 Sudoeste 12 Noroeste 0 -- -- 85
2020-05-15 08:00:00 10.8 4 Oeste 10 Oeste 0 -- -- 85
2020-05-15 07:00:00 10.8 5 Oeste 15 Sudoeste 0 -- -- 85
2020-05-15 06:00:00 10.7 5 Oeste 9 Oeste 0 -- -- 86
2020-05-15 05:00:00 10.8 4 Noroeste 8 Oeste 0 -- -- 86
2020-05-15 04:00:00 10.8 3 Sudoeste 10 Sudoeste 0 -- -- 87
2020-05-15 03:00:00 11 4 Oeste 12 Oeste 0 -- -- 86
2020-05-15 02:00:00 11.3 5 Noroeste 12 Oeste 0 -- -- 83
2020-05-15 01:00:00 11.3 5 Oeste 13 Sudoeste 0 -- -- 83
2020-05-15 00:00:00 11.5 5 Oeste 15 Noroeste 0 -- -- 83
2020-05-14 23:00:00 11.7 9 Noroeste 21 Oeste 0 -- -- 82
2020-05-14 22:00:00 12 6 Noroeste 20 Noroeste 0 -- -- 79
2020-05-14 21:00:00 12.6 5 Noroeste 20 Noroeste 0 -- -- 79
2020-05-14 20:00:00 13.5 5 Noroeste 14 Noroeste 0 -- -- 78
2020-05-14 19:00:00 14.2 5 Norte 20 Noroeste 0 -- -- 75
2020-05-14 18:00:00 14.6 5 Norte 23 Oeste 0 -- -- 73
2020-05-14 17:00:00 14.6 6 Noroeste 17 Noroeste 0 -- -- 74
2020-05-14 16:00:00 15 7 Noroeste 18 Noroeste 0 -- -- 75
2020-05-14 15:00:00 14 2 Sudoeste 8 Sur 0 -- -- 84
2020-05-14 14:00:00 13.7 3 Sur 6 Este 0 -- -- 83
2020-05-14 13:00:00 13.4 0 Calma 8 Oeste 0.2 -- -- 83
2020-05-14 12:00:00 13.8 5 Noroeste 9 Oeste 0 -- -- 82
2020-05-14 11:00:00 13.3 2 Norte 12 Nordeste 0 -- -- 86
2020-05-14 10:00:00 12.9 4 Norte 8 Noroeste 0 -- -- 87
2020-05-14 09:00:00 12.4 5 Oeste 10 Oeste 0 -- -- 89
2020-05-14 08:00:00 12.3 0 Calma 6 Nordeste 0 -- -- 90
2020-05-14 07:00:00 12.1 0 Calma 4 Sur 0 -- -- 93
2020-05-14 06:00:00 12.2 0 Calma 8 Norte 0 -- -- 93
2020-05-14 05:00:00 12.1 4 Norte 11 Nordeste 0 -- -- 93
2020-05-14 04:00:00 12.5 0 Calma 6 Oeste 0 -- -- 91
2020-05-14 03:00:00 12.6 3 Noroeste 8 Noroeste 0 -- -- 91
2020-05-14 02:00:00 12.6 2 Noroeste 6 Oeste 0 -- -- 91
2020-05-14 01:00:00 13.1 3 Sur 7 Sudoeste 0 -- -- 88
2020-05-14 00:00:00 13.9 0 Calma 11 Oeste 0 -- -- 85
2020-05-13 23:00:00 14.7 2 Oeste 9 Sudoeste 0 -- -- 82
2020-05-13 22:00:00 15.6 4 Oeste 9 Oeste 0 -- -- 77
2020-05-13 21:00:00 16.9 4 Oeste 9 Oeste 0 -- -- 70
2020-05-13 20:00:00 18.7 4 Oeste 11 Oeste 0 -- -- 63
2020-05-13 19:00:00 18.2 4 Noroeste 12 Oeste 0 -- -- 68
2020-05-13 18:00:00 18.3 5 Noroeste 14 Noroeste 0 -- -- 65
2020-05-13 17:00:00 17.4 2 Noroeste 11 Oeste 0 -- -- 67
2020-05-13 16:00:00 17.5 5 Sudeste 10 Nordeste 0 -- -- 67
2020-05-13 15:00:00 16.1 6 Nordeste 12 Nordeste 0 -- -- 74
2020-05-13 14:00:00 13.9 3 Norte 8 Oeste 0 -- -- 84
2020-05-13 13:00:00 12.9 3 Sur 6 Sur 0 -- -- 86
2020-05-13 12:00:00 12.1 2 Sur 10 Oeste 0 -- -- 91
2020-05-13 11:00:00 11.4 4 Oeste 7 Noroeste 0 -- -- 93
2020-05-13 10:00:00 10.8 3 Oeste 9 Oeste 0.4 -- -- 96
2020-05-13 09:00:00 10.4 6 Oeste 14 Noroeste 0.8 -- -- 95
2020-05-13 08:00:00 10.6 6 Oeste 12 Oeste 0.2 -- -- 94
2020-05-13 07:00:00 10.7 4 Oeste 8 Oeste 0.2 -- -- 94
2020-05-13 06:00:00 10.9 3 Oeste 8 Oeste 0 -- -- 95
2020-05-13 05:00:00 10.9 2 Sudoeste 15 Oeste 0.2 -- -- 95
2020-05-13 04:00:00 11 6 Oeste 11 Oeste 0.2 -- -- 95
2020-05-13 03:00:00 11.4 5 Oeste 10 Oeste 0.2 -- -- 95
2020-05-13 02:00:00 11.5 3 Oeste 6 Noroeste 0.6 -- -- 95
2020-05-13 01:00:00 11.6 3 Sudoeste 5 Sudeste 1.2 -- -- 95
2020-05-13 00:00:00 11.8 2 Sur 5 Este 1.8 -- -- 95
2020-05-12 23:00:00 11.9 4 Nordeste 8 Nordeste 3.8 -- -- 94
2020-05-12 22:00:00 12.1 0 Calma 15 Oeste 0.8 -- -- 93
2020-05-12 21:00:00 12.3 4 Sudoeste 11 Oeste 1 -- -- 88
2020-05-12 20:00:00 13.3 7 Oeste 14 Noroeste 5.8 -- -- 89
2020-05-12 19:00:00 15.6 5 Sudoeste 14 Sudoeste 0 -- -- 81
2020-05-12 18:00:00 15.9 2 Sudoeste 14 Este 0.2 -- -- 85
2020-05-12 17:00:00 16.8 6 Nordeste 16 Nordeste 0 -- -- 73
2020-05-12 16:00:00 16.8 3 Noroeste 15 Noroeste 0 -- -- 68
2020-05-12 15:00:00 17.8 4 Nordeste 13 Norte 0 -- -- 65
2020-05-12 14:00:00 16.4 4 Oeste 13 Nordeste 0 -- -- 67
2020-05-12 13:00:00 15.7 3 Noroeste 12 Sudoeste 0 -- -- 70
2020-05-12 12:00:00 14.5 3 Noroeste 10 Sur 0 -- -- 72
2020-05-12 11:00:00 13.4 3 Sudoeste 8 Sur 0 -- -- 75
2020-05-12 10:00:00 12.4 2 Noroeste 7 Oeste 0 -- -- 78
2020-05-12 09:00:00 12 0 Calma 9 Sudoeste 0 -- -- 79
2020-05-12 08:00:00 11.3 5 Sudoeste 13 Sudoeste 0 -- -- 82
2020-05-12 07:00:00 11.4 4 Sudoeste 13 Noroeste 0 -- -- 82
2020-05-12 06:00:00 11.8 4 Oeste 13 Oeste 0 -- -- 82
2020-05-12 05:00:00 12.2 5 Noroeste 13 Oeste 0 -- -- 82
2020-05-12 04:00:00 12.5 4 Oeste 12 Oeste 0 -- -- 79
2020-05-12 03:00:00 12.7 5 Oeste 11 Oeste 0 -- -- 81
2020-05-12 02:00:00 12.9 4 Oeste 13 Oeste 0 -- -- 80
2020-05-12 01:00:00 13.1 5 Oeste 16 Oeste 0 -- -- 79
2020-05-12 00:00:00 13.5 7 Oeste 14 Oeste 0 -- -- 77
2020-05-11 23:00:00 14.3 6 Oeste 16 Noroeste 0 -- -- 73
2020-05-11 22:00:00 14.9 8 Noroeste 21 Noroeste 0 -- -- 72
2020-05-11 21:00:00 16.3 8 Oeste 22 Oeste 0 -- -- 69
2020-05-11 20:00:00 18.6 8 Noroeste 20 Oeste 0 -- -- 60
2020-05-11 19:00:00 19.8 8 Noroeste 27 Noroeste 0 -- -- 55
2020-05-11 18:00:00 20.3 9 Noroeste 30 Noroeste 0 -- -- 53
2020-05-11 17:00:00 21.4 9 Norte 37 Oeste 0 -- -- 54
2020-05-11 16:00:00 21.8 8 Noroeste 31 Oeste 0 -- -- 44
2020-05-11 15:00:00 21.4 14 Oeste 33 Oeste 0 -- -- 43
2020-05-11 14:00:00 19.9 18 Oeste 38 Oeste 0 -- -- 47
2020-05-11 13:00:00 19.3 14 Oeste 35 Oeste 0 -- -- 55
2020-05-11 12:00:00 18 15 Oeste 33 Oeste 0 -- -- 58
2020-05-11 11:00:00 15.9 13 Oeste 29 Oeste 0 -- -- 65
2020-05-11 10:00:00 15.2 3 Noroeste 12 Noroeste 0 -- -- 76
2020-05-11 09:00:00 12.9 2 Oeste 12 Sudoeste 0 -- -- 84
2020-05-11 08:00:00 12.3 5 Sudoeste 14 Oeste 0 -- -- 84
2020-05-11 07:00:00 11.7 5 Sudoeste 15 Oeste 0 -- -- 84
2020-05-11 06:00:00 11.9 8 Oeste 18 Oeste 0 -- -- 82
2020-05-11 05:00:00 12.2 6 Noroeste 18 Sudoeste 0 -- -- 80
2020-05-11 04:00:00 12.3 10 Sudoeste 20 Sudoeste 0 -- -- 79
2020-05-11 03:00:00 12.1 8 Oeste 13 Oeste 0 -- -- 83
2020-05-11 02:00:00 12.5 0 Calma 9 Oeste 0 -- -- 83
2020-05-11 01:00:00 12.7 4 Oeste 23 Sur 0 -- -- 82
2020-05-11 00:00:00 12.8 5 Sudoeste 25 Oeste 0 -- -- 83
2020-05-10 23:00:00 12.7 10 Oeste 21 Oeste 0 -- -- 85
2020-05-10 22:00:00 12.7 4 Sudoeste 17 Oeste 0 -- -- 90
2020-05-10 21:00:00 12.5 6 Sudoeste 14 Noroeste 1.2 -- -- 91
2020-05-10 20:00:00 12.8 6 Oeste 21 Sudoeste 2.8 -- -- 91
2020-05-10 19:00:00 13.3 7 Sudoeste 19 Sudoeste 1 -- -- 88
2020-05-10 18:00:00 13.3 9 Oeste 33 Oeste 1.6 -- -- 88
2020-05-10 17:00:00 15.3 13 Oeste 37 Oeste 0 -- -- 74
2020-05-10 16:00:00 15.3 10 Noroeste 35 Noroeste 0 -- -- 71
2020-05-10 15:00:00 17.8 11 Oeste 35 Sudoeste 0 -- -- 58
2020-05-10 14:00:00 17 14 Oeste 33 Oeste 0 -- -- 60
2020-05-10 13:00:00 17.5 12 Oeste 40 Oeste 0 -- -- 57
2020-05-10 12:00:00 17 12 Noroeste 36 Noroeste 0 -- -- 60
2020-05-10 11:00:00 16.1 12 Noroeste 30 Noroeste 0 -- -- 61
2020-05-10 10:00:00 15.6 8 Noroeste 18 Oeste 0 -- -- 71
2020-05-10 09:00:00 14.2 11 Oeste 22 Oeste 0 -- -- 76
2020-05-10 08:00:00 12.7 3 Este 12 Oeste 0.2 -- -- 88
2020-05-10 07:00:00 12.2 6 Sudoeste 21 Oeste 2 -- -- 88
2020-05-10 06:00:00 13.7 4 Sudoeste 12 Noroeste 1.2 -- -- 91
2020-05-10 05:00:00 14.2 3 Oeste 10 Noroeste 0 -- -- 90
2020-05-10 04:00:00 14.1 0 Calma 5 Sur 0 -- -- 91
2020-05-10 03:00:00 14 3 Sudeste 13 Sur 0 -- -- 91
2020-05-10 02:00:00 14.4 0 Calma 10 Sudoeste 0 -- -- 91
2020-05-10 01:00:00 14.7 4 Sur 8 Sur 0 -- -- 89
2020-05-10 00:00:00 15.4 4 Norte 12 Nordeste 0 -- -- 88
2020-05-09 23:00:00 16.3 3 Sudoeste 9 Sur 0 -- -- 82
2020-05-09 22:00:00 17.4 2 Sudeste 10 Norte 0 -- -- 79
2020-05-09 21:00:00 18.3 3 Oeste 19 Oeste 0 -- -- 73
2020-05-09 20:00:00 21 4 Oeste 24 Oeste 0 -- -- 63
2020-05-09 19:00:00 22 11 Noroeste 32 Noroeste 0 -- -- 60
2020-05-09 18:00:00 25.9 9 Sudoeste 26 Sur 0 -- -- 42
2020-05-09 17:00:00 24.3 7 Nordeste 35 Este 0 -- -- 47
2020-05-09 16:00:00 24.1 15 Este 32 Nordeste 0 -- -- 56
2020-05-09 15:00:00 23.4 20 Nordeste 31 Este 0 -- -- 59
2020-05-09 14:00:00 22.2 14 Nordeste 26 Este 0 -- -- 62
2020-05-09 13:00:00 21.6 14 Nordeste 27 Nordeste 0 -- -- 66
2020-05-09 12:00:00 20 14 Nordeste 31 Este 0 -- -- 71
2020-05-09 11:00:00 17.3 18 Este 30 Nordeste 0 -- -- 77
2020-05-09 10:00:00 16.1 18 Nordeste 31 Este 0 -- -- 78
2020-05-09 09:00:00 14.9 13 Nordeste 27 Nordeste 0 -- -- 82
2020-05-09 08:00:00 13 10 Nordeste 21 Este 0 -- -- 89
2020-05-09 07:00:00 12.8 4 Nordeste 20 Nordeste 0 -- -- 93
2020-05-09 06:00:00 13.2 6 Este 22 Nordeste 0 -- -- 91
2020-05-09 05:00:00 13.6 8 Nordeste 21 Sudoeste 0 -- -- 91
2020-05-09 04:00:00 13.9 16 Este 33 Este 0.2 -- -- 90
2020-05-09 03:00:00 13.7 4 Sur 10 Sudeste 0.4 -- -- 94
2020-05-09 02:00:00 14 2 Sudoeste 7 Sur 0 -- -- 92
2020-05-09 01:00:00 14.7 2 Sudeste 9 Sur 0 -- -- 91
2020-05-09 00:00:00 15.5 5 Sur 18 Nordeste 0.2 -- -- 90
2020-05-08 23:00:00 16.1 13 Este 36 Oeste 8.4 -- -- 91
2020-05-08 22:00:00 17.6 17 Oeste 33 Oeste 2 -- -- 81
2020-05-08 21:00:00 19.6 7 Sur 14 Nordeste 0 -- -- 74
2020-05-08 20:00:00 20.8 3 Nordeste 12 Sudoeste 0 -- -- 78
2020-05-08 19:00:00 21.1 4 Sudeste 34 Este 1.2 -- -- 69
2020-05-08 18:00:00 25.4 18 Nordeste 33 Este 0 -- -- 44
2020-05-08 17:00:00 25.1 18 Este 36 Nordeste 0 -- -- 49
2020-05-08 16:00:00 26.1 20 Nordeste 35 Nordeste 0 -- -- 48
2020-05-08 15:00:00 23.3 19 Nordeste 34 Nordeste 0 -- -- 61
2020-05-08 14:00:00 22.6 14 Este 23 Este 0 -- -- 57
2020-05-08 13:00:00 19.7 6 Nordeste 13 Sudeste 0 -- -- 67
2020-05-08 12:00:00 16.3 7 Sur 17 Oeste 0 -- -- 82
2020-05-08 11:00:00 15.5 4 Nordeste 27 Oeste 0 -- -- 79
2020-05-08 10:00:00 16.2 3 Norte 10 Sur 0 -- -- 73
2020-05-08 09:00:00 14.9 6 Sudoeste 13 Sudoeste 0 -- -- 76
2020-05-08 08:00:00 14.3 5 Oeste 10 Sudeste 0 -- -- 79
2020-05-08 07:00:00 14.7 10 Nordeste 26 Este 0 -- -- 75
2020-05-08 06:00:00 15 7 Nordeste 38 Este 0 -- -- 74
2020-05-08 05:00:00 15.9 20 Este 39 Este 0 -- -- 73
2020-05-08 04:00:00 17.3 17 Este 35 Este 0 -- -- 70
2020-05-08 03:00:00 18.5 12 Nordeste 31 Nordeste 0 -- -- 65
2020-05-08 02:00:00 19.1 12 Nordeste 29 Nordeste 0 -- -- 65
2020-05-08 01:00:00 19.8 13 Este 24 Este 0 -- -- 64
2020-05-08 00:00:00 20.5 5 Este 31 Este 0 -- -- 66
2020-05-07 23:00:00 21.6 14 Este 29 Este 0 -- -- 61
2020-05-07 22:00:00 22.4 14 Este 26 Nordeste 0 -- -- 55
2020-05-07 21:00:00 23.6 9 Este 25 Este 0 -- -- 52
2020-05-07 20:00:00 24 12 Este 30 Nordeste 0 -- -- 51
2020-05-07 19:00:00 24.5 8 Este 30 Nordeste 0 -- -- 50
2020-05-07 18:00:00 25.3 15 Este 39 Este 0 -- -- 50
2020-05-07 17:00:00 26.2 22 Este 41 Este 0 -- -- 49
2020-05-07 16:00:00 25.9 22 Nordeste 39 Este 0 -- -- 51
2020-05-07 15:00:00 24.7 22 Nordeste 40 Nordeste 0 -- -- 55
2020-05-07 14:00:00 24.3 22 Nordeste 41 Este 0 -- -- 56
2020-05-07 13:00:00 23.1 19 Nordeste 34 Este 0 -- -- 59
2020-05-07 12:00:00 20.7 18 Este 39 Nordeste 0 -- -- 63
2020-05-07 11:00:00 19.9 15 Nordeste 26 Nordeste 0 -- -- 65
2020-05-07 10:00:00 18.2 8 Este 18 Este 0 -- -- 69
2020-05-07 09:00:00 14.4 2 Norte 5 Sur 0 -- -- 82
2020-05-07 08:00:00 11.5 3 Sur 5 Sudeste 0 -- -- 89
2020-05-07 07:00:00 11.4 0 Calma 8 Sur 0 -- -- 90
2020-05-07 06:00:00 11.3 2 Sur 8 Sudeste 0 -- -- 89
2020-05-07 05:00:00 12.2 3 Sudeste 6 Sur 0 -- -- 86
2020-05-07 04:00:00 12.6 4 Sur 8 Sur 0 -- -- 85
2020-05-07 03:00:00 12.7 6 Sur 11 Sudeste 0 -- -- 84
2020-05-07 02:00:00 13.8 6 Sur 13 Sur 0 -- -- 80
2020-05-07 01:00:00 15.2 6 Sur 10 Sur 0 -- -- 73
2020-05-07 00:00:00 16.3 4 Sur 12 Sur 0 -- -- 70
2020-05-06 23:00:00 17.8 5 Sur 13 Sur 0 -- -- 68
2020-05-06 22:00:00 20.9 3 Sudoeste 13 Nordeste 0 -- -- 58
2020-05-06 21:00:00 23.4 5 Norte 16 Noroeste 0 -- -- 49
2020-05-06 20:00:00 26 8 Noroeste 15 Oeste 0 -- -- 36
2020-05-06 19:00:00 26.6 7 Noroeste 16 Noroeste 0 -- -- 33
2020-05-06 18:00:00 26.9 5 Norte 15 Norte 0 -- -- 31
2020-05-06 17:00:00 26.6 7 Noroeste 17 Nordeste 0 -- -- 31
2020-05-06 16:00:00 26.5 6 Norte 16 Norte 0 -- -- 32
2020-05-06 15:00:00 25.7 5 Nordeste 15 Nordeste 0 -- -- 34
2020-05-06 14:00:00 24.6 4 Noroeste 17 Nordeste 0 -- -- 37
2020-05-06 13:00:00 23.4 5 Norte 12 Norte 0 -- -- 40
2020-05-06 12:00:00 21.6 3 Nordeste 8 Este 0 -- -- 47
2020-05-06 11:00:00 19.5 3 Norte 6 Nordeste 0 -- -- 52
2020-05-06 10:00:00 16.6 3 Sudeste 10 Sur 0 -- -- 60
2020-05-06 09:00:00 13.9 4 Sudoeste 9 Sudoeste 0 -- -- 65
2020-05-06 08:00:00 11.6 4 Norte 19 Sur 0 -- -- 74
2020-05-06 07:00:00 11.4 6 Sudoeste 19 Sudoeste 0 -- -- 68
2020-05-06 06:00:00 10.8 6 Sur 11 Sur 0 -- -- 72
2020-05-06 05:00:00 11.4 5 Sur 12 Sur 0 -- -- 70
2020-05-06 04:00:00 12.7 4 Sur 14 Sudoeste 0 -- -- 65
2020-05-06 03:00:00 13.4 2 Sudeste 13 Sur 0 -- -- 64
2020-05-06 02:00:00 13.7 4 Sur 9 Sudoeste 0 -- -- 66
2020-05-06 01:00:00 13.5 7 Sur 14 Sur 0 -- -- 66
2020-05-06 00:00:00 13.8 6 Sur 9 Sudeste 0 -- -- 68
2020-05-05 23:00:00 16.5 3 Sur 13 Oeste 0 -- -- 56
2020-05-05 22:00:00 18.9 3 Noroeste 12 Oeste 0 -- -- 43
2020-05-05 21:00:00 20.9 4 Norte 26 Noroeste 0 -- -- 39
2020-05-05 20:00:00 22.8 8 Noroeste 24 Oeste 0 -- -- 34
2020-05-05 19:00:00 24.6 11 Noroeste 28 Oeste 0 -- -- 31
2020-05-05 18:00:00 25.4 5 Norte 19 Oeste 0 -- -- 33
2020-05-05 17:00:00 25.2 5 Norte 19 Noroeste 0 -- -- 37
2020-05-05 16:00:00 24.5 5 Norte 16 Oeste 0 -- -- 37
2020-05-05 15:00:00 23.2 6 Noroeste 19 Oeste 0 -- -- 44
2020-05-05 14:00:00 22.3 6 Noroeste 15 Noroeste 0 -- -- 46
2020-05-05 13:00:00 21.7 7 Noroeste 18 Oeste 0 -- -- 51
2020-05-05 12:00:00 19.9 8 Noroeste 15 Oeste 0 -- -- 58
2020-05-05 11:00:00 18.5 7 Noroeste 14 Oeste 0 -- -- 61
2020-05-05 10:00:00 16.8 6 Noroeste 10 Oeste 0 -- -- 66
2020-05-05 09:00:00 13.8 3 Sudeste 7 Sudeste 0 -- -- 88
2020-05-05 08:00:00 12 2 Sur 5 Norte 0 -- -- 90
2020-05-05 07:00:00 11.7 4 Sur 9 Sur 0 -- -- 90
2020-05-05 06:00:00 12.3 3 Este 10 Sudeste 0 -- -- 89
2020-05-05 05:00:00 12.9 4 Sur 10 Sudeste 0 -- -- 89
2020-05-05 04:00:00 13.9 3 Sur 6 Sur 0 -- -- 84
2020-05-05 03:00:00 14.8 0 Calma 9 Sudoeste 0 -- -- 81
2020-05-05 02:00:00 15.8 2 Sur 7 Sudoeste 0 -- -- 83
2020-05-05 01:00:00 17.4 2 Sur 17 Oeste 0 -- -- 76
2020-05-05 00:00:00 19.6 9 Oeste 22 Oeste 0 -- -- 58
2020-05-04 23:00:00 20.3 9 Oeste 21 Noroeste 0 -- -- 59
2020-05-04 22:00:00 21.6 7 Noroeste 41 Oeste 0.2 -- -- 57
2020-05-04 21:00:00 24.4 14 Oeste 29 Oeste 0 -- -- 55
2020-05-04 20:00:00 28.2 12 Sur 28 Sur 0 -- -- 42
2020-05-04 19:00:00 30.8 16 Sur 32 Sur 0 -- -- 30
2020-05-04 18:00:00 30.8 19 Sudeste 53 Sudeste 0 -- -- 30
2020-05-04 17:00:00 27.6 14 Este 32 Nordeste 0 -- -- 50
2020-05-04 16:00:00 27.7 14 Nordeste 30 Norte 0 -- -- 54
2020-05-04 15:00:00 25 18 Este 37 Este 0 -- -- 58
2020-05-04 14:00:00 24 23 Este 43 Este 0 -- -- 60
2020-05-04 13:00:00 24.1 22 Nordeste 37 Este 0 -- -- 61
2020-05-04 12:00:00 22.3 16 Nordeste 35 Este 0 -- -- 69
2020-05-04 11:00:00 19.7 20 Este 32 Este 0 -- -- 72
2020-05-04 10:00:00 18 18 Este 28 Este 0 -- -- 78
2020-05-04 09:00:00 15.8 14 Nordeste 22 Este 0 -- -- 85
2020-05-04 08:00:00 11.5 5 Sudeste 10 Sur 0 -- -- 92
2020-05-04 07:00:00 11.1 3 Sur 9 Sur 0 -- -- 91
2020-05-04 06:00:00 11.7 4 Sur 9 Sur 0 -- -- 90
2020-05-04 05:00:00 12.5 2 Sur 5 Sudoeste 0 -- -- 89
2020-05-04 04:00:00 13.2 4 Sur 10 Sur 0 -- -- 88
2020-05-04 03:00:00 13.8 5 Sudeste 9 Sur 0 -- -- 87
2020-05-04 02:00:00 14.6 4 Sudeste 7 Sur 0 -- -- 86
2020-05-04 01:00:00 15.5 5 Sur 8 Sur 0 -- -- 84
2020-05-04 00:00:00 16.8 6 Sur 9 Sudeste 0 -- -- 80
2020-05-03 23:00:00 18.8 4 Sur 8 Sur 0 -- -- 74
2020-05-03 22:00:00 21 3 Este 13 Este 0 -- -- 66
2020-05-03 21:00:00 22.8 6 Nordeste 18 Nordeste 0 -- -- 61
2020-05-03 20:00:00 25.4 10 Este 21 Este 0 -- -- 52
2020-05-03 19:00:00 26.5 12 Este 27 Este 0 -- -- 49
2020-05-03 18:00:00 26.8 14 Este 30 Este 0 -- -- 47
2020-05-03 17:00:00 26.5 15 Este 29 Este 0 -- -- 49
2020-05-03 16:00:00 26.1 15 Este 29 Este 0 -- -- 48
2020-05-03 15:00:00 25.4 11 Nordeste 24 Este 0 -- -- 50
2020-05-03 14:00:00 24.3 12 Nordeste 21 Este 0 -- -- 50
2020-05-03 13:00:00 23 9 Nordeste 19 Nordeste 0 -- -- 57
2020-05-03 12:00:00 20.4 4 Noroeste 11 Nordeste 0 -- -- 65
2020-05-03 11:00:00 18.2 4 Norte 11 Nordeste 0 -- -- 71
2020-05-03 10:00:00 15.8 0 Calma 7 Sudoeste 0 -- -- 78
2020-05-03 09:00:00 12.6 3 Sur 6 Sur 0 -- -- 89
2020-05-03 08:00:00 10 2 Sur 5 Sudeste 0 -- -- 94
2020-05-03 07:00:00 9.4 3 Sur 8 Sur 0 -- -- 93
2020-05-03 06:00:00 10.2 3 Sur 6 Sur 0 -- -- 92
2020-05-03 05:00:00 10.8 0 Calma 5 Sur 0 -- -- 91
2020-05-03 04:00:00 11.6 2 Sur 6 Sur 0 -- -- 91
2020-05-03 03:00:00 12.1 3 Sur 7 Sur 0 -- -- 90
2020-05-03 02:00:00 13 3 Sur 9 Sur 0 -- -- 88
2020-05-03 01:00:00 14.4 0 Calma 5 Sur 0 -- -- 84
2020-05-03 00:00:00 15.6 2 Sur 8 Sur 0 -- -- 78
2020-05-02 23:00:00 16.7 3 Sur 9 Sur 0 -- -- 77
2020-05-02 22:00:00 18.4 2 Nordeste 8 Norte 0 -- -- 71
2020-05-02 21:00:00 20.2 6 Norte 21 Oeste 0 -- -- 65
2020-05-02 20:00:00 23 5 Noroeste 25 Noroeste 0 -- -- 51
2020-05-02 19:00:00 23.4 11 Noroeste 37 Noroeste 0 -- -- 49
2020-05-02 18:00:00 23.3 18 Noroeste 44 Noroeste 0 -- -- 48
2020-05-02 17:00:00 23.8 15 Noroeste 45 Noroeste 0 -- -- 49
2020-05-02 16:00:00 23.7 17 Noroeste 39 Oeste 0 -- -- 51
2020-05-02 15:00:00 23.4 14 Noroeste 31 Noroeste 0 -- -- 53
2020-05-02 14:00:00 23.5 11 Noroeste 27 Norte 0 -- -- 53
2020-05-02 13:00:00 21.9 6 Norte 28 Nordeste 0 -- -- 58
2020-05-02 12:00:00 20 12 Norte 24 Norte 0 -- -- 64
2020-05-02 11:00:00 19.3 5 Noroeste 15 Oeste 0 -- -- 64
2020-05-02 10:00:00 17.8 6 Noroeste 14 Noroeste 0 -- -- 70
2020-05-02 09:00:00 15.7 5 Noroeste 15 Oeste 0 -- -- 77
2020-05-02 08:00:00 13.1 4 Este 7 Este 0 -- -- 87
2020-05-02 07:00:00 11.9 3 Sudeste 6 Sudeste 0 -- -- 88
2020-05-02 06:00:00 13 3 Noroeste 13 Sudoeste 0 -- -- 84
2020-05-02 05:00:00 15.1 6 Oeste 22 Noroeste 0 -- -- 77
2020-05-02 04:00:00 15.9 8 Noroeste 23 Oeste 0 -- -- 74
2020-05-02 03:00:00 16.9 8 Oeste 21 Oeste 0 -- -- 69
2020-05-02 02:00:00 17.8 7 Sudoeste 26 Oeste 0 -- -- 66
2020-05-02 01:00:00 18.3 9 Oeste 30 Oeste 0 -- -- 66
2020-05-02 00:00:00 19 13 Oeste 28 Oeste 0 -- -- 63
2020-05-01 23:00:00 17.5 4 Noroeste 12 Oeste 0 -- -- 75
2020-05-01 22:00:00 18.6 7 Norte 39 Sudoeste 0 -- -- 73
2020-05-01 21:00:00 21.6 15 Oeste 40 Sudoeste 0 -- -- 54
2020-05-01 20:00:00 23.6 16 Sudoeste 39 Sudoeste 0 -- -- 48
2020-05-01 19:00:00 24.1 16 Oeste 45 Oeste 0 -- -- 47
2020-05-01 18:00:00 24.5 21 Oeste 53 Oeste 0 -- -- 47
2020-05-01 17:00:00 24.6 21 Oeste 51 Sudoeste 0 -- -- 47
2020-05-01 16:00:00 23.4 18 Oeste 50 Oeste 0 -- -- 49
2020-05-01 15:00:00 21.9 14 Oeste 54 Oeste 0 -- -- 54
2020-05-01 14:00:00 21.8 17 Oeste 50 Oeste 0 -- -- 53
2020-05-01 13:00:00 21.5 12 Oeste 31 Sudoeste 0 -- -- 54
2020-05-01 12:00:00 20.6 7 Sudoeste 17 Sur 0 -- -- 60
2020-05-01 11:00:00 18.2 3 Noroeste 14 Sudoeste 0 -- -- 67
2020-05-01 10:00:00 16.5 6 Nordeste 11 Este 0 -- -- 74
2020-05-01 09:00:00 14.6 3 Sudoeste 14 Norte 0 -- -- 84
2020-05-01 08:00:00 14.3 5 Este 10 Oeste 0 -- -- 80
2020-05-01 07:00:00 14.6 4 Sudoeste 17 Sudoeste 0.2 -- -- 76
2020-05-01 06:00:00 15.5 7 Sudoeste 20 Oeste 0 -- -- 70
2020-05-01 05:00:00 15.4 9 Sudoeste 21 Sudoeste 0 -- -- 68
2020-05-01 04:00:00 14.9 7 Sudoeste 22 Sudoeste 0 -- -- 69
2020-05-01 03:00:00 15.1 10 Sudoeste 21 Oeste 0 -- -- 67
2020-05-01 02:00:00 15 8 Sudoeste 16 Sudoeste 0 -- -- 66
2020-05-01 01:00:00 15.2 8 Sudoeste 22 Oeste 0 -- -- 64
2020-05-01 00:00:00 15.8 7 Sudoeste 30 Sudoeste 0 -- -- 61
2020-04-30 23:00:00 16.3 14 Sudoeste 32 Oeste 0 -- -- 58
2020-04-30 22:00:00 16.2 5 Sudoeste 20 Oeste 0 -- -- 58
2020-04-30 21:00:00 17.4 10 Sudoeste 25 Sudoeste 0 -- -- 53
2020-04-30 20:00:00 19.2 10 Sudoeste 32 Sudoeste 0 -- -- 48
2020-04-30 19:00:00 19.2 12 Oeste 30 Sudoeste 0 -- -- 48
2020-04-30 18:00:00 18.9 14 Sudoeste 32 Sudoeste 0 -- -- 48
2020-04-30 17:00:00 19.1 9 Sudoeste 35 Sudoeste 0 -- -- 48
2020-04-30 16:00:00 18.8 18 Oeste 41 Oeste 0 -- -- 46
2020-04-30 15:00:00 18.1 13 Oeste 35 Sudoeste 0 -- -- 45
2020-04-30 14:00:00 17.9 12 Sudoeste 37 Sudoeste 0 -- -- 47
2020-04-30 13:00:00 17.5 19 Oeste 51 Sudoeste 0 -- -- 49
2020-04-30 12:00:00 16.8 21 Oeste 53 Oeste 0 -- -- 49
2020-04-30 11:00:00 15.4 11 Sudoeste 31 Oeste 0 -- -- 52
2020-04-30 10:00:00 14 5 Sudoeste 15 Sudoeste 0 -- -- 62
2020-04-30 09:00:00 13.6 6 Sudoeste 15 Sur 0 -- -- 60
2020-04-30 08:00:00 12.8 7 Sudoeste 16 Sudoeste 0 -- -- 60
2020-04-30 07:00:00 12.3 4 Oeste 14 Sudoeste 0 -- -- 61
2020-04-30 06:00:00 12.9 8 Sudoeste 19 Sudoeste 0 -- -- 53
2020-04-30 05:00:00 13.1 11 Oeste 35 Oeste 0 -- -- 52
2020-04-30 04:00:00 13 16 Oeste 38 Oeste 0 -- -- 55
2020-04-30 03:00:00 13.6 19 Oeste 36 Oeste 0 -- -- 58
2020-04-30 02:00:00 13.8 13 Oeste 27 Oeste 0 -- -- 64
2020-04-30 01:00:00 14.3 13 Oeste 31 Oeste 0 -- -- 60
2020-04-30 00:00:00 14.8 14 Oeste 30 Oeste 0 -- -- 57
2020-04-29 23:00:00 14.9 3 Oeste 12 Noroeste 0 -- -- 59
2020-04-29 22:00:00 16.2 6 Oeste 19 Oeste 0 -- -- 52
2020-04-29 21:00:00 17.2 13 Sudoeste 42 Oeste 0 -- -- 47
2020-04-29 20:00:00 18 13 Oeste 26 Sudoeste 0 -- -- 49
2020-04-29 19:00:00 17.9 7 Sudoeste 31 Sudoeste 0 -- -- 57
2020-04-29 18:00:00 19 16 Sudoeste 38 Sudoeste 0 -- -- 51
2020-04-29 17:00:00 19.5 13 Sudoeste 27 Sudoeste 0 -- -- 46
2020-04-29 16:00:00 20.8 10 Sudoeste 24 Sudoeste 0 -- -- 44
2020-04-29 15:00:00 20.4 12 Sur 32 Oeste 0 -- -- 46
2020-04-29 14:00:00 18.7 6 Nordeste 13 Nordeste 0 -- -- 49
2020-04-29 13:00:00 18.4 3 Este 11 Este 0 -- -- 49
2020-04-29 12:00:00 17 7 Este 13 Nordeste 0 -- -- 57
2020-04-29 11:00:00 14.4 3 Oeste 9 Nordeste 0 -- -- 63
2020-04-29 10:00:00 12 6 Norte 10 Norte 0 -- -- 75
2020-04-29 09:00:00 9.7 0 Calma 8 Sur 0 -- -- 82
2020-04-29 08:00:00 6.8 4 Sur 9 Noroeste 0 -- -- 89
2020-04-29 07:00:00 7 4 Sur 11 Sudoeste 0 -- -- 87
2020-04-29 06:00:00 7.6 3 Sur 8 Sudeste 0 -- -- 86
2020-04-29 05:00:00 8.1 0 Calma 16 Sudeste 0 -- -- 85
2020-04-29 04:00:00 7.9 2 Sudeste 6 Sudeste 0 -- -- 86
2020-04-29 03:00:00 8.8 3 Sur 7 Sur 0 -- -- 86
2020-04-29 02:00:00 10 3 Sur 6 Sudoeste 0 -- -- 83
2020-04-29 01:00:00 11 2 Sur 7 Noroeste 0 -- -- 79
2020-04-29 00:00:00 12.2 3 Oeste 10 Sudoeste 0 -- -- 71
2020-04-28 23:00:00 12.4 5 Oeste 17 Noroeste 0 -- -- 70
2020-04-28 22:00:00 13.2 9 Oeste 18 Noroeste 0 -- -- 68
2020-04-28 21:00:00 15.3 7 Oeste 23 Oeste 0 -- -- 50
2020-04-28 20:00:00 17.1 9 Oeste 31 Oeste 0 -- -- 49
2020-04-28 19:00:00 17.1 13 Oeste 35 Oeste 0 -- -- 49
2020-04-28 18:00:00 17 11 Oeste 35 Oeste 0 -- -- 48
2020-04-28 17:00:00 18.3 11 Noroeste 35 Oeste 0 -- -- 48
2020-04-28 16:00:00 16.6 15 Oeste 32 Oeste 0 -- -- 48
2020-04-28 15:00:00 16.9 17 Oeste 45 Oeste 0 -- -- 47
2020-04-28 14:00:00 14.8 21 Oeste 44 Oeste 0 -- -- 54
2020-04-28 13:00:00 16.2 9 Oeste 28 Oeste 0 -- -- 49
2020-04-28 12:00:00 15.1 6 Sudoeste 21 Sur 0 -- -- 54
2020-04-28 11:00:00 13.4 4 Noroeste 14 Norte 0 -- -- 70
2020-04-28 10:00:00 10.6 6 Sudoeste 10 Sur 0 -- -- 89
2020-04-28 09:00:00 8.5 2 Sur 7 Sur 0 -- -- 96
2020-04-28 08:00:00 7.5 0 Calma 9 Sudeste 0 -- -- 95
2020-04-28 07:00:00 7.1 3 Sudoeste 8 Sur 0 -- -- 96
2020-04-28 06:00:00 7 3 Sur 6 Sur 0 -- -- 94
2020-04-28 05:00:00 7.6 3 Sur 8 Sur 0 -- -- 93
2020-04-28 04:00:00 8.3 3 Sur 9 Sudeste 0 -- -- 93
2020-04-28 03:00:00 9.1 2 Sur 4 Sudeste 0 -- -- 90
2020-04-28 02:00:00 10 0 Calma 5 Oeste 0 -- -- 89
2020-04-28 01:00:00 10.2 2 Oeste 6 Oeste 0 -- -- 88
2020-04-28 00:00:00 10.6 0 Calma 13 Oeste 0 -- -- 85
2020-04-27 23:00:00 11.4 6 Sudoeste 16 Oeste 0.2 -- -- 80
2020-04-27 22:00:00 12.3 3 Noroeste 22 Noroeste 0 -- -- 74
2020-04-27 21:00:00 14 11 Noroeste 27 Sudoeste 0 -- -- 71
2020-04-27 20:00:00 16.7 10 Sudoeste 19 Oeste 0 -- -- 52
2020-04-27 19:00:00 17.5 5 Noroeste 17 Oeste 0 -- -- 52
2020-04-27 18:00:00 17.9 6 Sur 36 Sudoeste 0 -- -- 57
2020-04-27 17:00:00 16.4 12 Oeste 24 Oeste 0.2 -- -- 61
2020-04-27 16:00:00 17.3 12 Oeste 32 Noroeste 0 -- -- 56
2020-04-27 15:00:00 16.2 7 Oeste 24 Sudoeste 0.2 -- -- 59
2020-04-27 14:00:00 15.5 9 Oeste 26 Oeste 0.6 -- -- 70
2020-04-27 13:00:00 16.3 6 Sur 13 Sudeste 0 -- -- 69
2020-04-27 12:00:00 15.9 4 Oeste 11 Oeste 0 -- -- 73
2020-04-27 11:00:00 13.8 0 Calma 6 Oeste 0 -- -- 87
2020-04-27 10:00:00 12.4 0 Calma 9 Sudeste 0 -- -- 95
2020-04-27 09:00:00 11.4 0 Calma 6 Sudoeste 0 -- -- 97
2020-04-27 08:00:00 10.8 3 Sur 6 Sur 0 -- -- 97
2020-04-27 07:00:00 10.7 0 Calma 6 Sur 0 -- -- 96
2020-04-27 06:00:00 10.7 4 Sur 6 Sur 0 -- -- 95
2020-04-27 05:00:00 11.4 2 Oeste 6 Sudoeste 0 -- -- 96
2020-04-27 04:00:00 11.8 0 Calma 4 Sur 0 -- -- 96
2020-04-27 03:00:00 11.9 2 Sur 6 Sudeste 0 -- -- 95
2020-04-27 02:00:00 12.3 2 Sur 5 Sudeste 0 -- -- 95
2020-04-27 01:00:00 12.7 3 Sudeste 6 Sudeste 0 -- -- 95
2020-04-27 00:00:00 12.8 0 Calma 7 Sudoeste 0 -- -- 94